Time;durP1;ratioP1;P1;durP2;ratioP2;P2;SDS_P1;SDS_P2;PMS_P1;PMS_P2;Temp;Humidity;BMP_temperature;BMP_pressure;BME280_temperature;BME280_humidity;BME280_pressure;Samples;Min_cycle;Max_cycle;Signal;HPM_P1;HPM_P2
2023/04/18 00:00:41;;;;;;;13.52;11.80;;;;;;;8.14;84.60;102529.81;5040712;28;20025;-63
2023/04/18 00:03:08;;;;;;;14.02;12.50;;;;;;;8.12;84.54;102531.66;5036603;28;20040;-63
2023/04/18 00:05:35;;;;;;;17.45;12.32;;;;;;;8.09;84.89;102532.66;5026899;28;20025;-63
2023/04/18 00:08:01;;;;;;;15.88;12.50;;;;;;;8.06;84.20;102529.25;5029455;28;20375;-63
2023/04/18 00:10:26;;;;;;;17.33;12.30;;;;;;;8.04;84.42;102528.47;5043487;28;20075;-63
2023/04/18 00:12:51;;;;;;;16.05;12.10;;;;;;;8.02;84.83;102530.31;5039926;28;20056;-63
2023/04/18 00:15:17;;;;;;;18.58;11.90;;;;;;;8.00;85.10;102522.44;5048323;28;20017;-63
2023/04/18 00:17:42;;;;;;;20.67;11.90;;;;;;;7.99;84.81;102525.13;5045230;28;20024;-63
2023/04/18 00:20:11;;;;;;;15.40;12.60;;;;;;;7.96;85.16;102526.97;5035521;28;20068;-63
2023/04/18 00:22:41;;;;;;;17.77;12.18;;;;;;;7.95;85.33;102525.25;5042245;28;20473;-63
2023/04/18 00:25:07;;;;;;;16.23;12.38;;;;;;;7.90;85.74;102523.72;5045140;28;20043;-63
2023/04/18 00:27:32;;;;;;;16.48;12.40;;;;;;;7.91;85.13;102522.75;5041361;28;20100;-63
2023/04/18 00:29:58;;;;;;;15.32;11.98;;;;;;;7.89;85.54;102524.63;5035717;28;20125;-63
2023/04/18 00:32:23;;;;;;;14.32;12.15;;;;;;;7.85;85.45;102523.88;5040344;28;20017;-63
2023/04/18 00:34:48;;;;;;;17.95;12.80;;;;;;;7.85;85.29;102526.53;5029879;28;20055;-63
2023/04/18 00:37:14;;;;;;;19.55;13.15;;;;;;;7.83;85.42;102523.09;5037405;28;20029;-63
2023/04/18 00:39:39;;;;;;;18.25;13.10;;;;;;;7.80;85.46;102525.84;5038388;28;20021;-63
2023/04/18 00:42:05;;;;;;;18.80;13.32;;;;;;;7.77;85.99;102518.88;5036715;28;20026;-63
2023/04/18 00:44:31;;;;;;;17.58;13.48;;;;;;;7.72;86.28;102512.88;5027274;28;20474;-63
2023/04/18 00:46:56;;;;;;;18.75;13.25;;;;;;;7.71;86.07;102518.22;5034411;28;20025;-63
2023/04/18 00:49:22;;;;;;;16.58;13.07;;;;;;;7.68;86.49;102515.72;5037440;28;20474;-63
2023/04/18 00:51:48;;;;;;;19.17;13.73;;;;;;;7.66;86.50;102517.56;5031948;28;20028;-63
2023/04/18 00:54:17;;;;;;;17.55;13.45;;;;;;;7.60;85.98;102508.94;5048695;28;20021;-63
2023/04/18 00:56:42;;;;;;;17.63;13.20;;;;;;;7.60;85.70;102516.84;5034264;28;20025;-63
2023/04/18 00:59:08;;;;;;;17.60;12.93;;;;;;;7.59;84.68;102512.50;5030636;28;20116;-63
2023/04/18 01:01:33;;;;;;;16.92;12.88;;;;;;;7.59;83.63;102514.28;5038170;28;20021;-63
2023/04/18 01:03:59;;;;;;;16.08;12.25;;;;;;;7.59;83.15;102519.56;5033786;28;20053;-63
2023/04/18 01:06:26;;;;;;;16.05;12.23;;;;;;;7.56;82.20;102517.91;5014758;28;20036;-63
2023/04/18 01:08:52;;;;;;;16.35;12.38;;;;;;;7.56;81.60;102514.38;5017799;28;20030;-63
2023/04/18 01:11:18;;;;;;;14.27;11.55;;;;;;;7.54;81.23;102509.19;4988109;28;1049566;-63
2023/04/18 01:13:57;;;;;;;15.57;12.23;;;;;;;7.54;80.74;102518.88;5023820;28;20038;-63
2023/04/18 01:16:23;;;;;;;15.63;11.77;;;;;;;7.51;79.50;102517.22;5043033;28;20025;-63
2023/04/18 01:18:48;;;;;;;17.48;11.63;;;;;;;7.51;78.63;102514.56;5050310;28;20082;-63
2023/04/18 01:21:13;;;;;;;14.20;11.70;;;;;;;7.48;79.04;102517.31;5042801;28;20028;-63
2023/04/18 01:23:39;;;;;;;16.65;11.15;;;;;;;7.47;78.19;102520.88;5027285;28;20390;-63
2023/04/18 01:26:04;;;;;;;14.88;11.45;;;;;;;7.43;77.42;102508.72;5043357;28;20541;-63
2023/04/18 01:28:30;;;;;;;15.95;10.77;;;;;;;7.42;77.35;102512.25;5032887;28;20033;-63
2023/04/18 01:30:55;;;;;;;14.20;11.20;;;;;;;7.41;77.34;102516.69;5032793;28;20079;-63
2023/04/18 01:33:21;;;;;;;15.75;10.90;;;;;;;7.39;77.17;102505.31;5032464;28;20037;-63
2023/04/18 01:35:46;;;;;;;14.95;10.90;;;;;;;7.37;77.54;102501.00;5031985;28;20033;-63
2023/04/18 01:38:11;;;;;;;15.93;10.68;;;;;;;7.36;76.90;102504.53;5036430;28;20017;-63
2023/04/18 01:40:36;;;;;;;15.43;11.52;;;;;;;7.31;77.42;102498.56;5012895;28;20028;-63
2023/04/18 01:43:02;;;;;;;16.85;11.27;;;;;;;7.29;77.58;102505.69;5024290;28;20052;-63
2023/04/18 01:45:27;;;;;;;15.77;11.18;;;;;;;7.26;77.89;102497.88;5025777;28;20501;-63
2023/04/18 01:47:52;;;;;;;16.27;11.73;;;;;;;7.23;77.90;102497.06;5047569;28;20156;-63
2023/04/18 01:50:18;;;;;;;15.60;11.85;;;;;;;7.19;78.30;102494.59;5044354;28;20039;-63
2023/04/18 01:52:43;;;;;;;15.90;10.82;;;;;;;7.17;78.43;102493.78;5029878;28;20025;-63
2023/04/18 01:55:09;;;;;;;16.30;11.27;;;;;;;7.11;78.72;102488.72;5036175;28;20025;-63
2023/04/18 01:57:37;;;;;;;14.63;11.68;;;;;;;7.09;78.82;102499.31;5035167;28;20033;-63
2023/04/18 02:00:05;;;;;;;16.17;11.52;;;;;;;7.04;79.33;102495.97;5039808;28;20036;-63
2023/04/18 02:02:30;;;;;;;17.92;11.55;;;;;;;7.00;79.59;102491.75;5032478;28;20147;-63
2023/04/18 02:04:55;;;;;;;14.93;12.13;;;;;;;6.96;79.59;102491.00;5040170;28;20541;-63
2023/04/18 02:07:21;;;;;;;17.10;11.88;;;;;;;6.92;79.30;102492.00;5045880;28;20490;-63
2023/04/18 02:09:46;;;;;;;15.43;11.75;;;;;;;6.90;79.31;102480.63;5035667;28;20462;-63
2023/04/18 02:12:11;;;;;;;14.23;11.32;;;;;;;6.89;79.50;102501.81;5046236;28;20096;-63
2023/04/18 02:14:36;;;;;;;18.85;12.07;;;;;;;6.86;79.03;102494.84;5024493;28;20025;-63
2023/04/18 02:17:02;;;;;;;19.13;12.35;;;;;;;6.82;78.81;102494.09;5046686;28;20025;-63
2023/04/18 02:19:29;;;;;;;16.48;11.32;;;;;;;6.80;78.88;102489.78;5046761;28;20057;-63
2023/04/18 02:21:54;;;;;;;16.15;11.68;;;;;;;6.76;78.90;102491.69;5048557;28;20025;-63
2023/04/18 02:24:19;;;;;;;14.35;11.45;;;;;;;6.73;79.25;102494.41;5021406;28;20493;-62
2023/04/18 02:26:45;;;;;;;13.35;10.75;;;;;;;6.70;78.73;102485.75;5031075;28;20090;-62
2023/04/18 02:29:10;;;;;;;15.13;11.55;;;;;;;6.69;78.84;102484.00;5044766;28;20461;-62
2023/04/18 02:31:38;;;;;;;15.00;11.32;;;;;;;6.64;78.90;102485.03;5048500;28;20033;-62
2023/04/18 02:34:03;;;;;;;15.25;10.80;;;;;;;6.62;79.50;102481.56;5033136;28;20036;-62
2023/04/18 02:36:29;;;;;;;14.88;11.00;;;;;;;6.60;79.13;102482.56;5048462;28;20072;-61
2023/04/18 02:38:55;;;;;;;15.48;11.55;;;;;;;6.57;79.48;102483.50;5035415;28;20025;-63
2023/04/18 02:41:20;;;;;;;16.13;11.98;;;;;;;6.56;79.27;102484.44;5032829;28;20159;-63
2023/04/18 02:43:45;;;;;;;15.23;11.65;;;;;;;6.51;79.31;102481.06;5036382;28;20074;-63
2023/04/18 02:46:11;;;;;;;17.23;11.55;;;;;;;6.48;79.18;102482.03;5040628;28;20033;-62
2023/04/18 02:48:36;;;;;;;17.90;11.48;;;;;;;6.46;79.67;102483.88;5044910;28;20045;-63
2023/04/18 02:51:03;;;;;;;14.70;11.75;;;;;;;6.42;79.66;102482.22;5043750;28;20111;-63
2023/04/18 02:53:28;;;;;;;14.27;11.43;;;;;;;6.38;79.78;102475.34;5032901;28;20091;-63
2023/04/18 02:55:54;;;;;;;17.35;12.25;;;;;;;6.34;79.81;102481.63;5032005;28;20486;-63
2023/04/18 02:58:19;;;;;;;16.30;12.35;;;;;;;6.33;80.03;102490.47;5037758;28;20021;-63
2023/04/18 03:00:44;;;;;;;14.98;12.00;;;;;;;6.31;80.16;102484.34;5025457;28;20023;-62
2023/04/18 03:03:11;;;;;;;16.00;12.02;;;;;;;6.28;80.02;102484.47;5034882;28;20025;-62
2023/04/18 03:05:38;;;;;;;17.42;11.90;;;;;;;6.21;80.56;102483.81;5036819;28;20033;-62
2023/04/18 03:08:03;;;;;;;15.27;11.18;;;;;;;6.22;80.30;102487.28;5040314;28;20544;-63
2023/04/18 03:10:29;;;;;;;14.43;11.52;;;;;;;6.18;80.10;102483.91;5042274;28;20072;-62
2023/04/18 03:12:54;;;;;;;16.50;11.93;;;;;;;6.13;80.33;102483.19;5018374;28;20033;-62
2023/04/18 03:15:20;;;;;;;16.33;11.45;;;;;;;6.11;80.29;102484.97;5033076;28;20462;-62
2023/04/18 03:17:45;;;;;;;17.58;12.02;;;;;;;6.08;80.17;102480.69;5046681;28;20021;-62
2023/04/18 03:20:11;;;;;;;16.08;11.43;;;;;;;6.07;79.99;102488.66;5039631;28;20033;-62
2023/04/18 03:22:36;;;;;;;15.00;11.07;;;;;;;6.01;80.45;102487.06;5025568;28;20029;-63
2023/04/18 03:25:02;;;;;;;15.10;11.65;;;;;;;5.98;80.41;102488.91;5034662;28;20032;-63
2023/04/18 03:27:27;;;;;;;15.50;11.63;;;;;;;5.93;80.29;102492.53;5036851;28;20064;-63
2023/04/18 03:29:53;;;;;;;14.02;11.50;;;;;;;5.90;80.75;102494.41;5036557;28;20025;-62
2023/04/18 03:32:18;;;;;;;16.83;11.65;;;;;;;5.86;80.58;102479.56;5025971;28;20033;-62
2023/04/18 03:34:43;;;;;;;14.70;11.07;;;;;;;5.82;80.69;102483.22;5027953;28;20475;-62
2023/04/18 03:37:08;;;;;;;14.27;11.30;;;;;;;5.79;80.66;102489.44;5034051;28;20021;-62
2023/04/18 03:39:34;;;;;;;16.70;11.65;;;;;;;5.79;80.43;102491.22;5028609;28;20127;-63
2023/04/18 03:42:00;;;;;;;13.57;10.93;;;;;;;5.74;80.43;102492.25;5035543;28;20029;-62
2023/04/18 03:44:26;;;;;;;18.50;12.00;;;;;;;5.72;80.35;102487.91;5039470;28;20037;-63
2023/04/18 03:46:51;;;;;;;15.07;11.45;;;;;;;5.68;80.18;102484.50;5037508;28;20018;-63
2023/04/18 03:49:16;;;;;;;14.27;11.75;;;;;;;5.67;80.44;102485.41;5028037;28;20037;-62
2023/04/18 03:51:47;;;;;;;14.60;11.38;;;;;;;5.65;80.43;102486.38;5032021;28;20029;-63
2023/04/18 03:54:14;;;;;;;14.48;11.52;;;;;;;5.60;80.55;102481.22;5023384;28;20390;-63
2023/04/18 03:56:40;;;;;;;14.15;11.73;;;;;;;5.55;80.58;102485.78;5034037;28;20098;-63
2023/04/18 03:59:05;;;;;;;15.13;11.63;;;;;;;5.55;80.81;102493.69;5034029;28;20605;-62
2023/04/18 04:01:30;;;;;;;14.00;11.48;;;;;;;5.53;80.83;102491.09;5039431;28;20609;-62
2023/04/18 04:03:56;;;;;;;14.82;11.25;;;;;;;5.51;80.81;102492.03;5035552;28;20029;-63
2023/04/18 04:06:21;;;;;;;17.08;11.45;;;;;;;5.48;81.17;102486.84;5038266;28;20064;-62
2023/04/18 04:08:46;;;;;;;17.80;11.35;;;;;;;5.44;81.10;102488.72;5041700;28;20082;-62
2023/04/18 04:11:11;;;;;;;17.05;11.20;;;;;;;5.42;81.23;102489.69;5037867;28;20042;-62
2023/04/18 04:13:37;;;;;;;16.52;12.35;;;;;;;5.40;81.40;102494.13;5033171;28;20022;-63
2023/04/18 04:16:04;;;;;;;14.68;11.43;;;;;;;5.36;81.47;102493.31;5034264;28;20428;-63
2023/04/18 04:18:30;;;;;;;16.20;11.63;;;;;;;5.32;81.47;102487.28;5045683;28;20030;-63
2023/04/18 04:20:58;;;;;;;15.93;12.10;;;;;;;5.31;82.00;102492.59;5041868;28;20019;-62
2023/04/18 04:23:26;;;;;;;15.80;12.02;;;;;;;5.27;81.63;102494.47;5033825;28;20022;-62
2023/04/18 04:25:53;;;;;;;17.70;11.80;;;;;;;5.25;82.50;102500.69;5047406;28;20112;-63
2023/04/18 04:28:21;;;;;;;17.42;12.23;;;;;;;5.22;81.88;102499.00;5037722;28;20037;-63
2023/04/18 04:30:50;;;;;;;14.63;11.53;;;;;;;5.21;81.92;102497.25;5041605;28;20079;-62
2023/04/18 04:33:18;;;;;;;13.68;10.95;;;;;;;5.15;82.08;102490.41;5043074;28;20295;-62
2023/04/18 04:35:44;;;;;;;16.00;11.25;;;;;;;5.15;82.15;102498.28;5049803;28;20033;-63
2023/04/18 04:38:11;;;;;;;14.27;11.10;;;;;;;5.14;82.40;102507.09;5051776;28;20040;-63
2023/04/18 04:40:36;;;;;;;15.07;11.13;;;;;;;5.12;82.58;102500.16;5045110;28;20063;-63
2023/04/18 04:43:01;;;;;;;16.48;11.85;;;;;;;5.09;82.46;102498.44;5030847;28;20026;-63
2023/04/18 04:45:27;;;;;;;15.00;11.00;;;;;;;5.09;82.93;102510.78;5040456;28;20040;-63
2023/04/18 04:47:52;;;;;;;15.52;11.35;;;;;;;5.05;82.83;102504.72;5051416;28;20104;-63
2023/04/18 04:50:17;;;;;;;13.77;11.23;;;;;;;5.02;83.06;102504.81;5047457;28;20112;-63
2023/04/18 04:52:43;;;;;;;14.13;11.00;;;;;;;5.02;83.11;102514.47;5051536;28;20023;-63
2023/04/18 04:55:08;;;;;;;14.10;11.40;;;;;;;5.00;82.86;102506.63;5032901;28;20033;-63
2023/04/18 04:57:34;;;;;;;14.15;11.27;;;;;;;4.98;83.26;102505.81;5025032;28;20069;-63
2023/04/18 05:00:00;;;;;;;15.02;11.35;;;;;;;4.96;82.99;102508.47;5039034;28;20389;-63
2023/04/18 05:02:25;;;;;;;12.82;10.95;;;;;;;4.93;82.93;102500.66;5023020;28;20034;-63
2023/04/18 05:04:50;;;;;;;16.85;11.27;;;;;;;4.93;83.25;102508.53;5034345;28;20021;-63
2023/04/18 05:07:15;;;;;;;16.15;11.52;;;;;;;4.92;83.35;102511.22;5041845;28;20029;-63
2023/04/18 05:09:41;;;;;;;16.60;11.40;;;;;;;4.91;83.09;102506.84;5043558;28;20120;-63
2023/04/18 05:12:06;;;;;;;15.38;11.73;;;;;;;4.91;83.56;102506.84;5042703;28;20021;-63
2023/04/18 05:14:31;;;;;;;17.70;11.38;;;;;;;4.90;83.33;102508.63;5020050;28;20083;-63
2023/04/18 05:16:57;;;;;;;12.60;11.18;;;;;;;4.90;83.39;102511.25;5036244;28;20052;-63
2023/04/18 05:19:22;;;;;;;16.20;10.95;;;;;;;4.89;83.64;102511.28;5044562;28;20389;-63
2023/04/18 05:21:48;;;;;;;17.27;11.13;;;;;;;4.88;83.44;102507.81;5044758;28;20108;-63
2023/04/18 05:24:13;;;;;;;15.95;10.93;;;;;;;4.88;83.77;102512.19;5031307;28;20086;-63
2023/04/18 05:26:39;;;;;;;12.85;11.43;;;;;;;4.85;83.49;102515.78;5038408;28;20040;-63
2023/04/18 05:29:04;;;;;;;14.77;11.38;;;;;;;4.86;83.68;102517.50;5039797;28;20021;-63
2023/04/18 05:31:29;;;;;;;15.43;10.82;;;;;;;4.89;83.20;102517.41;5034240;28;20471;-63
2023/04/18 05:33:55;;;;;;;14.70;11.45;;;;;;;4.89;83.08;102519.19;5031510;28;20025;-63
2023/04/18 05:36:20;;;;;;;15.00;10.73;;;;;;;4.90;83.29;102527.06;5032704;28;20379;-63
2023/04/18 05:38:46;;;;;;;17.23;11.80;;;;;;;4.91;83.50;102526.16;5045774;28;20475;-63
2023/04/18 05:41:11;;;;;;;14.80;11.10;;;;;;;4.93;83.06;102528.72;5046601;28;20091;-63
2023/04/18 05:43:36;;;;;;;15.30;10.88;;;;;;;4.95;83.44;102532.22;5040083;28;20032;-63
2023/04/18 05:46:01;;;;;;;17.30;11.45;;;;;;;4.98;83.19;102534.78;5046826;28;20482;-63
2023/04/18 05:48:27;;;;;;;16.17;11.48;;;;;;;5.02;83.40;102538.19;5041409;28;20032;-63
2023/04/18 05:50:52;;;;;;;14.55;11.30;;;;;;;5.07;83.98;102538.91;5041000;28;20112;-63
2023/04/18 05:53:17;;;;;;;14.20;11.25;;;;;;;5.11;83.60;102535.28;5035991;28;20486;-63
2023/04/18 05:55:45;;;;;;;13.68;11.05;;;;;;;5.15;83.24;102544.84;5039445;28;20085;-60
2023/04/18 05:58:10;;;;;;;12.88;10.70;;;;;;;5.19;83.60;102546.50;5032548;28;20024;-60
2023/04/18 06:00:36;;;;;;;14.82;11.60;;;;;;;5.25;83.57;102541.06;5031521;28;20037;-62
2023/04/18 06:03:01;;;;;;;15.20;11.40;;;;;;;5.30;83.63;102543.59;5035551;28;20467;-62
2023/04/18 06:05:27;;;;;;;16.38;11.63;;;;;;;5.34;83.42;102546.06;5046779;28;20040;-63
2023/04/18 06:07:52;;;;;;;16.30;11.40;;;;;;;5.41;83.28;102538.84;5017777;28;20422;-62
2023/04/18 06:10:17;;;;;;;17.42;11.55;;;;;;;5.47;83.82;102543.97;5029780;28;20498;-62
2023/04/18 06:12:42;;;;;;;15.95;11.43;;;;;;;5.53;83.36;102537.69;5018903;28;20383;-62
2023/04/18 06:15:09;;;;;;;15.43;11.48;;;;;;;5.60;82.79;102544.50;5028287;28;20025;-62
2023/04/18 06:17:34;;;;;;;13.25;10.93;;;;;;;5.66;82.84;102552.25;5025668;28;20056;-62
2023/04/18 06:20:00;;;;;;;15.73;11.23;;;;;;;5.73;82.40;102551.16;5014065;28;20434;-62
2023/04/18 06:22:25;;;;;;;12.98;10.45;;;;;;;5.79;82.32;102554.50;5031205;28;20064;-62
2023/04/18 06:24:50;;;;;;;14.65;10.80;;;;;;;5.81;82.25;102550.03;5030210;28;20036;-62
2023/04/18 06:27:16;;;;;;;15.95;11.38;;;;;;;5.84;82.29;102553.44;5024726;28;20073;-62
2023/04/18 06:29:42;;;;;;;15.25;11.40;;;;;;;5.88;82.22;102554.25;5026055;28;20032;-62
2023/04/18 06:32:07;;;;;;;13.10;11.30;;;;;;;5.93;82.36;102550.56;5030150;28;20398;-61
2023/04/18 06:34:32;;;;;;;14.68;11.05;;;;;;;5.99;82.81;102559.22;5028932;28;20028;-62
2023/04/18 06:36:58;;;;;;;21.70;11.98;;;;;;;6.03;82.44;102560.84;5025710;28;20074;-63
2023/04/18 06:39:23;;;;;;;13.13;11.35;;;;;;;6.07;82.27;102563.34;5021169;28;20029;-62
2023/04/18 06:41:49;;;;;;;14.38;10.88;;;;;;;6.11;82.52;102554.47;5022300;28;20065;-62
2023/04/18 06:44:14;;;;;;;12.55;11.25;;;;;;;6.17;82.45;102556.03;5025460;28;20025;-62
2023/04/18 06:46:40;;;;;;;15.05;12.18;;;;;;;6.25;82.52;102563.72;5026339;28;20036;-62
2023/04/18 06:49:05;;;;;;;16.83;11.63;;;;;;;6.32;82.84;102562.63;5027693;28;20041;-63
2023/04/18 06:51:31;;;;;;;15.75;11.68;;;;;;;6.38;82.79;102565.06;5025298;28;20036;-61
2023/04/18 06:53:56;;;;;;;16.92;11.40;;;;;;;6.44;82.76;102567.50;5025253;28;20037;-62
2023/04/18 06:56:22;;;;;;;14.52;10.90;;;;;;;6.53;82.36;102560.19;5027693;28;20120;-62
2023/04/18 06:58:48;;;;;;;12.43;10.70;;;;;;;6.59;81.95;102574.06;5023261;28;20049;-62
2023/04/18 07:01:13;;;;;;;15.05;10.93;;;;;;;6.65;82.37;102571.25;5027623;28;20034;-61
2023/04/18 07:03:38;;;;;;;16.65;10.98;;;;;;;6.73;83.02;102578.94;5022114;28;20100;-62
2023/04/18 07:06:04;;;;;;;13.02;10.85;;;;;;;6.81;82.25;102573.38;5026666;28;20029;-62
2023/04/18 07:08:30;;;;;;;16.02;11.80;;;;;;;6.90;82.31;102577.50;5029579;28;20045;-62
2023/04/18 07:10:55;;;;;;;12.02;10.38;;;;;;;6.96;81.81;102569.34;5028991;28;20042;-62
2023/04/18 07:13:20;;;;;;;13.30;10.57;;;;;;;7.02;81.61;102574.44;5028110;28;20111;-61
2023/04/18 07:15:46;;;;;;;13.52;10.40;;;;;;;7.08;81.26;102570.72;5032683;28;20025;-63
2023/04/18 07:18:11;;;;;;;14.50;10.98;;;;;;;7.09;80.73;102568.03;5041999;28;20041;-62
2023/04/18 07:20:36;;;;;;;12.13;10.43;;;;;;;7.13;81.28;102574.09;5026247;28;20049;-62
2023/04/18 07:23:02;;;;;;;16.08;11.20;;;;;;;7.15;81.19;102578.41;5030287;28;20037;-63
2023/04/18 07:25:27;;;;;;;12.88;10.88;;;;;;;7.17;81.00;102573.91;5024537;28;20044;-63
2023/04/18 07:27:52;;;;;;;13.63;10.98;;;;;;;7.21;81.07;102578.19;5030018;28;20112;-63
2023/04/18 07:30:17;;;;;;;14.07;11.20;;;;;;;7.27;80.83;102584.19;5024852;28;20554;-63
2023/04/18 07:32:43;;;;;;;12.55;10.45;;;;;;;7.32;80.35;102584.88;5030841;28;20045;-63
2023/04/18 07:35:09;;;;;;;12.30;9.90;;;;;;;7.35;80.37;102584.78;5029678;28;20022;-62
2023/04/18 07:37:34;;;;;;;12.88;10.25;;;;;;;7.41;80.90;102592.47;5019933;28;20053;-63
2023/04/18 07:40:00;;;;;;;15.07;10.32;;;;;;;7.46;80.27;102592.31;5026836;28;20026;-63
2023/04/18 07:42:25;;;;;;;15.15;10.43;;;;;;;7.58;80.37;102594.53;5033367;28;20041;-63
2023/04/18 07:44:56;;;;;;;12.65;11.13;;;;;;;7.72;79.80;102588.75;5031086;28;20045;-62
2023/04/18 07:47:21;;;;;;;12.77;9.45;;;;;;;7.75;79.22;102589.47;5027841;28;20438;-62
2023/04/18 07:49:46;;;;;;;11.05;9.93;;;;;;;7.81;79.49;102590.19;5035686;28;20030;-63
2023/04/18 07:52:12;;;;;;;11.77;10.00;;;;;;;7.87;79.67;102595.25;5039374;28;20112;-63
2023/04/18 07:54:37;;;;;;;12.90;9.73;;;;;;;7.99;79.07;102593.94;5030441;28;20127;-63
2023/04/18 07:57:02;;;;;;;13.85;9.95;;;;;;;8.19;79.25;102596.66;5033615;28;20108;-62
2023/04/18 07:59:28;;;;;;;13.23;9.90;;;;;;;8.37;77.99;102592.44;5023458;28;20037;-62
2023/04/18 08:01:53;;;;;;;12.18;10.00;;;;;;;8.57;76.89;102585.53;5029351;28;20364;-63
2023/04/18 08:04:19;;;;;;;11.57;9.23;;;;;;;8.68;75.77;102593.91;5032185;28;20022;-62
2023/04/18 08:06:44;;;;;;;11.30;9.18;;;;;;;8.77;75.99;102593.53;5017833;28;20025;-61
2023/04/18 08:09:10;;;;;;;9.68;8.68;;;;;;;8.90;75.76;102596.53;5015358;28;20084;-62
2023/04/18 08:11:36;;;;;;;9.90;8.85;;;;;;;8.95;74.95;102597.22;5018756;28;20088;-62
2023/04/18 08:14:01;;;;;;;10.73;9.15;;;;;;;9.04;75.10;102604.78;5016005;28;20049;-62
2023/04/18 08:16:27;;;;;;;10.48;8.50;;;;;;;9.08;74.58;102602.88;5030354;28;20527;-62
2023/04/18 08:18:52;;;;;;;11.00;9.43;;;;;;;9.07;74.30;102607.28;5031357;28;20032;-62
2023/04/18 08:21:18;;;;;;;12.30;9.40;;;;;;;9.15;75.18;102606.97;5044662;28;20075;-62
2023/04/18 08:23:44;;;;;;;10.32;9.00;;;;;;;9.16;74.03;102599.88;5024236;28;20503;-63
2023/04/18 08:26:10;;;;;;;12.77;9.88;;;;;;;9.21;74.34;102606.72;5031004;28;20401;-62
2023/04/18 08:28:35;;;;;;;11.32;9.10;;;;;;;9.21;74.18;102604.06;5038025;28;20261;-62
2023/04/18 08:31:00;;;;;;;12.00;10.35;;;;;;;9.24;73.86;102605.72;5040782;28;20028;-62
2023/04/18 08:33:27;;;;;;;14.35;10.00;;;;;;;9.23;73.70;102611.97;5003670;28;21656;-62
2023/04/18 08:35:52;;;;;;;12.48;9.38;;;;;;;9.27;73.80;102602.94;5026791;28;20025;-62
2023/04/18 08:38:18;;;;;;;12.88;10.43;;;;;;;9.26;73.90;102604.75;5031547;28;20092;-62
2023/04/18 08:40:44;;;;;;;12.90;10.30;;;;;;;9.32;74.36;102611.56;5035913;28;20045;-62
2023/04/18 08:43:12;;;;;;;14.48;9.45;;;;;;;9.37;74.17;102598.09;5036833;28;20029;-62
2023/04/18 08:45:39;;;;;;;12.77;9.68;;;;;;;9.40;73.98;102596.19;5025690;28;20052;-62
2023/04/18 08:48:06;;;;;;;11.10;9.30;;;;;;;9.45;74.60;102596.84;5037126;28;20033;-60
2023/04/18 08:50:32;;;;;;;11.38;9.73;;;;;;;9.50;73.32;102601.09;5036654;28;20037;-62
2023/04/18 08:53:00;;;;;;;11.70;8.95;;;;;;;9.54;73.97;102600.00;5029054;28;20368;-62
2023/04/18 08:55:25;;;;;;;11.90;9.80;;;;;;;9.59;73.46;102596.25;5034878;28;20032;-62
2023/04/18 08:57:53;;;;;;;12.32;9.52;;;;;;;9.63;73.32;102594.31;5037500;28;20056;-63
2023/04/18 09:00:19;;;;;;;10.70;9.43;;;;;;;9.68;73.58;102586.16;5025938;28;20037;-62
2023/04/18 09:02:45;;;;;;;12.20;9.00;;;;;;;9.80;74.62;102589.09;5034013;28;20055;-62
2023/04/18 09:05:18;;;;;;;11.10;9.98;;;;;;;9.97;74.96;102587.47;5033851;28;20067;-62
2023/04/18 09:07:44;;;;;;;10.70;9.57;;;;;;;10.21;73.13;102580.16;5035747;28;20048;-62
2023/04/18 09:10:11;;;;;;;10.52;9.30;;;;;;;10.39;71.46;102583.75;5030419;28;20514;-62
2023/04/18 09:12:50;;;;;;;12.30;9.20;;;;;;;10.48;71.33;102582.47;5030271;28;20065;-62
2023/04/18 09:15:21;;;;;;;10.43;8.48;;;;;;;10.55;70.92;102571.44;5031953;28;20293;-63
2023/04/18 09:17:49;;;;;;;12.48;9.43;;;;;;;10.69;70.33;102570.78;5049962;28;20060;-62
2023/04/18 09:20:39;;;;;;;10.88;9.32;;;;;;;10.87;69.42;102574.31;5042433;28;20112;-62
2023/04/18 09:23:09;;;;;;;11.80;9.60;;;;;;;11.05;68.09;102579.66;5014500;28;20426;-62
2023/04/18 09:25:40;;;;;;;;;;;;;;;11.19;68.96;102578.94;5018383;28;20384;-62
2023/04/18 09:28:27;;;;;;;10.20;8.88;;;;;;;11.26;66.78;102573.22;5028964;28;19956;-62
2023/04/18 09:30:57;;;;;;;11.07;9.23;;;;;;;11.21;64.50;102583.25;5030942;28;20116;-62
2023/04/18 09:33:31;;;;;;;;;;;;;;;11.26;66.88;102581.22;5016275;28;20101;-62
2023/04/18 09:36:19;;;;;;;10.20;9.18;;;;;;;11.15;65.29;102569.41;5007442;28;19960;-63
2023/04/18 09:38:45;;;;;;;10.18;8.55;;;;;;;11.04;64.52;102569.94;5024041;28;20516;-63
2023/04/18 09:41:11;;;;;;;9.80;8.35;;;;;;;11.12;65.16;102573.06;5019351;28;20029;-62
2023/04/18 09:43:37;;;;;;;9.32;8.35;;;;;;;11.14;63.86;102559.69;5016802;28;20037;-62
2023/04/18 09:46:03;;;;;;;10.23;8.10;;;;;;;11.11;63.83;102566.91;5027730;28;20188;-62
2023/04/18 09:48:29;;;;;;;9.85;8.05;;;;;;;11.11;64.26;102563.38;5042341;28;20520;-62
2023/04/18 09:50:57;;;;;;;9.23;8.20;;;;;;;11.15;64.63;102564.09;5032834;28;20109;-62
2023/04/18 09:53:23;;;;;;;9.35;8.38;;;;;;;11.17;63.97;102560.38;5025246;28;20033;-62
2023/04/18 09:55:51;;;;;;;9.98;8.27;;;;;;;11.22;64.79;102558.34;5032877;28;20589;-62
2023/04/18 09:58:21;;;;;;;9.85;8.10;;;;;;;11.28;64.45;102563.34;5034881;28;20112;-62
2023/04/18 10:00:48;;;;;;;10.40;8.20;;;;;;;11.37;63.52;102556.69;5025119;28;20029;-62
2023/04/18 10:03:17;;;;;;;10.30;7.95;;;;;;;11.53;63.72;102566.53;5018994;28;20499;-62
2023/04/18 10:05:43;;;;;;;10.02;7.43;;;;;;;11.61;62.09;102565.19;5010977;28;20117;-62
2023/04/18 10:08:09;;;;;;;9.63;7.22;;;;;;;11.68;61.81;102564.88;5015613;28;20156;-62
2023/04/18 10:10:35;;;;;;;9.52;7.05;;;;;;;11.72;61.68;102563.75;5015274;28;20111;-62
2023/04/18 10:13:02;;;;;;;9.82;7.32;;;;;;;11.74;61.95;102573.38;5016886;28;20034;-62
2023/04/18 10:15:28;;;;;;;7.32;6.63;;;;;;;11.68;60.13;102567.53;5020197;28;20033;-62
2023/04/18 10:17:55;;;;;;;7.88;6.75;;;;;;;11.58;60.75;102572.47;5038820;28;20048;-62
2023/04/18 10:20:23;;;;;;;8.32;6.63;;;;;;;11.55;61.80;102567.31;5032951;28;20052;-63
2023/04/18 10:22:50;;;;;;;9.10;6.47;;;;;;;11.60;62.49;102558.13;5031021;28;20025;-62
2023/04/18 10:25:37;;;;;;;6.63;5.60;;;;;;;11.67;62.38;102564.00;5027240;28;20512;-62
2023/04/18 10:28:07;;;;;;;6.57;5.82;;;;;;;11.59;60.79;102564.41;5032638;28;20403;-63
2023/04/18 10:31:01;;;;;;;6.15;5.53;;;;;;;11.58;61.40;102559.19;5007885;28;20045;-62
2023/04/18 10:33:39;;;;;;;6.65;5.15;;;;;;;11.45;61.01;102572.25;5020308;28;20025;-62
2023/04/18 10:36:14;;;;;;;5.32;4.82;;;;;;;11.39;60.56;102577.91;5025880;28;20107;-62
2023/04/18 10:38:44;;;;;;;7.10;5.38;;;;;;;11.32;60.50;102573.84;5024970;28;20033;-63
2023/04/18 10:41:23;;;;;;;7.03;6.07;;;;;;;11.29;59.84;102577.50;5023387;28;20042;-62
2023/04/18 10:44:07;;;;;;;6.65;5.38;;;;;;;11.28;60.45;102567.84;5016723;28;20549;-62
2023/04/18 10:46:36;;;;;;;6.55;5.95;;;;;;;11.26;59.20;102569.72;5016109;28;20447;-62
2023/04/18 10:49:12;;;;;;;7.40;5.85;;;;;;;11.32;60.17;102566.72;5020721;28;20029;-63
2023/04/18 10:51:38;;;;;;;6.30;5.70;;;;;;;11.35;60.42;102563.06;5023108;28;20495;-62
2023/04/18 10:54:07;;;;;;;6.43;5.72;;;;;;;11.39;60.98;102562.81;5030745;28;20039;-62
2023/04/18 10:56:32;;;;;;;6.35;5.65;;;;;;;11.54;61.61;102555.81;5028776;28;20029;-63
2023/04/18 10:59:01;;;;;;;6.40;5.80;;;;;;;11.57;60.46;102571.59;5027869;28;20026;-62
2023/04/18 11:01:29;;;;;;;6.78;6.15;;;;;;;11.58;60.98;102569.81;5027481;28;20394;-62
2023/04/18 11:03:55;;;;;;;7.75;6.03;;;;;;;11.61;61.43;102562.53;5024593;28;20558;-62
2023/04/18 11:06:21;;;;;;;8.73;6.38;;;;;;;11.64;60.21;102574.78;5028389;28;20128;-63
2023/04/18 11:08:50;;;;;;;6.72;6.03;;;;;;;11.55;59.40;102569.97;5024950;28;20018;-62
2023/04/18 11:11:15;;;;;;;8.35;6.03;;;;;;;11.54;59.97;102574.44;5031478;28;20148;-62
2023/04/18 11:13:57;;;;;;;7.10;6.40;;;;;;;11.55;61.25;102562.84;5015440;28;20113;-62
2023/04/18 11:16:31;;;;;;;12.70;6.60;;;;;;;11.59;61.80;102561.75;5035457;28;20053;-62